createdAt,value
2019-02-09T00:05:28.908Z,19.19
2019-02-09T00:11:23.927Z,23.26
2019-02-09T00:17:18.962Z,19.7
2019-02-09T00:23:13.962Z,18.94
2019-02-09T00:29:08.977Z,20.7
2019-02-09T00:35:03.932Z,19.29
2019-02-09T00:40:58.939Z,22.26
2019-02-09T00:46:53.945Z,20.18
2019-02-09T00:52:48.948Z,25
2019-02-09T00:58:43.971Z,19.97
2019-02-09T01:04:39.008Z,23.75
2019-02-09T01:10:34.018Z,19.66
2019-02-09T01:16:28.951Z,20.09
2019-02-09T01:22:23.951Z,25.26
2019-02-09T01:28:18.977Z,19.04
2019-02-09T01:34:13.964Z,19.27
2019-02-09T01:40:09.038Z,19.31
2019-02-09T01:46:04.053Z,18.94
2019-02-09T01:51:58.981Z,22.46
2019-02-09T01:57:54.016Z,20.1
2019-02-09T02:03:48.974Z,18.43
2019-02-09T02:09:44.017Z,16.12
2019-02-09T02:15:39.029Z,16.3
2019-02-09T02:21:33.999Z,20.26
2019-02-09T02:27:28.995Z,18.26
2019-02-09T02:33:23.992Z,16.23
2019-02-09T02:39:19.002Z,13.74
2019-02-09T02:45:14.067Z,18.37
2019-02-09T02:51:09.019Z,17.15
2019-02-09T02:57:04.015Z,15.47
2019-02-09T03:02:59.026Z,20.57
2019-02-09T03:08:54.013Z,22.59
2019-02-09T03:14:49.017Z,21.93
2019-02-09T03:20:44.028Z,19.8
2019-02-09T03:26:39.048Z,20.75
2019-02-09T03:32:34.026Z,20.59
2019-02-09T03:38:29.053Z,22.27
2019-02-09T03:44:24.049Z,17.33
2019-02-09T03:50:19.032Z,25.58
2019-02-09T03:56:14.035Z,22.83
2019-02-09T04:02:09.071Z,23.38
2019-02-09T04:08:04.050Z,20.24
2019-02-09T04:13:59.105Z,19.55
2019-02-09T04:19:54.071Z,22.16
2019-02-09T04:25:49.065Z,23.01
2019-02-09T04:31:44.068Z,24.61
2019-02-09T04:37:39.122Z,20.16
2019-02-09T04:43:34.097Z,18.7
2019-02-09T04:49:29.106Z,18.11
2019-02-09T04:55:24.082Z,19.49
2019-02-09T05:01:19.132Z,19.62
2019-02-09T05:07:14.095Z,23.84
2019-02-09T05:13:09.102Z,21.85
2019-02-09T05:19:04.092Z,18.87
2019-02-09T05:24:59.092Z,21.05
2019-02-09T05:30:54.114Z,18.09
2019-02-09T05:36:49.101Z,17.7
2019-02-09T05:42:44.108Z,21.73
2019-02-09T05:48:39.116Z,17.23
2019-02-09T05:54:34.097Z,18.75
2019-02-09T06:00:29.109Z,20.49
2019-02-09T06:06:24.126Z,17.99
2019-02-09T06:12:19.171Z,20.53
2019-02-09T06:18:14.118Z,18.16
2019-02-09T06:24:09.133Z,22.06
2019-02-09T06:30:04.132Z,24.04
2019-02-09T06:35:59.162Z,27.2
2019-02-09T06:41:54.132Z,21.97
2019-02-09T06:47:49.149Z,22.23
2019-02-09T06:53:44.170Z,19.17
2019-02-09T06:59:39.155Z,22.3
2019-02-09T07:05:34.142Z,21.15
2019-02-09T07:11:29.148Z,24.25
2019-02-09T07:17:24.157Z,23.18
2019-02-09T07:23:19.184Z,19.9
2019-02-09T07:29:14.152Z,19.26
2019-02-09T07:35:09.184Z,18.11
2019-02-09T07:41:04.181Z,16.01
2019-02-09T07:46:59.215Z,17.12
2019-02-09T07:52:54.170Z,20.87
2019-02-09T07:58:49.183Z,21.85
2019-02-09T08:04:44.194Z,21.81
2019-02-09T08:10:39.222Z,24.35
2019-02-09T08:16:34.231Z,20.95
2019-02-09T08:22:29.201Z,26.07
2019-02-09T08:28:24.199Z,21.72
2019-02-09T08:34:19.270Z,21.41
2019-02-09T08:40:14.220Z,19.38
2019-02-09T08:46:09.210Z,22.2
2019-02-09T08:52:04.202Z,20.65
2019-02-09T08:57:59.224Z,18.63
2019-02-09T09:03:54.247Z,26.68
2019-02-09T09:09:49.247Z,22.08
2019-02-09T09:15:44.227Z,32.33
2019-02-09T09:21:39.213Z,38.74
2019-02-09T09:27:34.244Z,24.64
2019-02-09T09:33:29.245Z,22.79
2019-02-09T09:39:24.249Z,28.44
2019-02-09T09:45:19.240Z,28.93
2019-02-09T09:51:14.250Z,30.02
2019-02-09T09:57:09.236Z,34.58
2019-02-09T10:03:04.237Z,30.94
2019-02-09T10:08:59.282Z,30.22
2019-02-09T10:14:54.255Z,39.58
2019-02-09T10:20:49.268Z,31.09
2019-02-09T10:26:44.314Z,33.06
2019-02-09T10:32:44.252Z,32.03
2019-02-09T10:38:34.277Z,37.67
2019-02-09T10:44:29.261Z,40.08
2019-02-09T10:50:24.259Z,27.15
2019-02-09T10:56:19.284Z,29.93
2019-02-09T11:02:14.333Z,32.61
2019-02-09T11:08:09.291Z,33.54
2019-02-09T11:14:04.301Z,30.17
2019-02-09T11:19:59.337Z,32.28
2019-02-09T11:25:54.287Z,29.09
2019-02-09T11:31:49.291Z,29.56
2019-02-09T11:37:44.314Z,30.98
2019-02-09T11:43:39.311Z,27.03
2019-02-09T11:49:34.306Z,25.31
2019-02-09T11:55:29.323Z,31.91
2019-02-09T12:01:24.365Z,32.15
2019-02-09T12:07:19.337Z,31.77
2019-02-09T12:13:14.309Z,27.07
2019-02-09T12:19:09.429Z,32.07
2019-02-09T12:25:04.362Z,28.22
2019-02-09T12:30:59.347Z,27.22
2019-02-09T12:36:54.374Z,30.65
2019-02-09T12:42:49.376Z,25.02
2019-02-09T12:48:44.332Z,34.83
2019-02-09T12:54:39.385Z,30.02
2019-02-09T13:00:34.356Z,34.04
2019-02-09T13:06:29.401Z,31.09
2019-02-09T13:12:24.404Z,29.03
2019-02-09T13:18:19.352Z,36.63
2019-02-09T13:24:14.355Z,34.96
2019-02-09T13:30:09.401Z,43.13
2019-02-09T13:36:04.361Z,38.41
2019-02-09T13:41:59.412Z,34.91
2019-02-09T14:05:39.424Z,35.09
2019-02-09T14:05:39.439Z,44.71
2019-02-09T14:05:39.482Z,44.71
2019-02-09T14:05:39.495Z,44.71
2019-02-09T14:11:34.403Z,43.19
2019-02-09T14:17:29.418Z,45.43
2019-02-09T14:23:24.398Z,42.53
2019-02-09T14:29:19.488Z,57.29
2019-02-09T14:35:14.417Z,54.57
2019-02-09T14:41:09.427Z,50.46
2019-02-09T14:47:04.404Z,43.65
2019-02-09T14:52:59.406Z,53.57
2019-02-09T14:58:54.413Z,51.22
2019-02-09T15:04:49.420Z,53.53
2019-02-09T15:10:44.407Z,55.77
2019-02-09T15:16:39.418Z,51.22
2019-02-09T15:22:34.429Z,60.58
2019-02-09T15:28:29.427Z,66.11
2019-02-09T15:34:24.483Z,56.2
2019-02-09T15:40:19.425Z,55.43
2019-02-09T15:46:14.426Z,53.3
2019-02-09T15:52:09.453Z,62.74
2019-02-09T15:58:04.451Z,54.25
2019-02-09T16:03:59.473Z,52.85
2019-02-09T16:09:54.456Z,53.95
2019-02-09T16:15:49.468Z,58.87
2019-02-09T16:21:44.504Z,64.23
2019-02-09T16:27:39.463Z,56.4
2019-02-09T16:33:34.485Z,58.1
2019-02-09T16:39:29.488Z,49.17
2019-02-09T16:45:24.486Z,56.63
2019-02-09T16:51:19.490Z,52.98
2019-02-09T16:57:14.492Z,51.93
2019-02-09T17:03:09.507Z,60.05
2019-02-09T17:09:04.483Z,61.95
2019-02-09T17:14:59.586Z,62.48
2019-02-09T17:20:54.539Z,68.22
2019-02-09T17:26:49.506Z,56.62
2019-02-09T17:32:44.512Z,62.24
2019-02-09T17:38:39.522Z,58.3
2019-02-09T17:44:34.514Z,58.88
2019-02-09T17:50:29.525Z,74.1
2019-02-09T17:56:24.591Z,59.79
2019-02-09T18:02:19.548Z,62.87
2019-02-09T18:08:14.535Z,63.07
2019-02-09T18:14:09.557Z,60.77
2019-02-09T18:20:04.541Z,62.67
2019-02-09T18:25:59.551Z,57.57
2019-02-09T18:31:54.569Z,56.84
2019-02-09T18:37:49.564Z,73.73
2019-02-09T18:43:44.550Z,61.33
2019-02-09T18:49:39.578Z,73.95
2019-02-09T18:55:34.557Z,66.32
2019-02-09T19:01:29.554Z,64.05
2019-02-09T19:07:24.610Z,73
2019-02-09T19:13:19.586Z,66.97
2019-02-09T19:19:14.571Z,74.52
2019-02-09T19:25:09.574Z,77.8
2019-02-09T19:31:04.592Z,71.14
2019-02-09T19:36:59.565Z,67.38
2019-02-09T19:42:54.623Z,262.87
2019-02-09T19:48:49.582Z,88.84
2019-02-09T19:54:44.606Z,65.86
2019-02-09T20:00:39.600Z,77.4
2019-02-09T20:06:34.599Z,88.55
2019-02-09T20:12:29.607Z,69.82
2019-02-09T20:18:24.635Z,84.88
2019-02-09T20:24:19.627Z,71.57
2019-02-09T20:30:14.619Z,72.16
2019-02-09T20:36:09.610Z,60.11
2019-02-09T20:42:04.640Z,65.7
2019-02-09T20:47:59.633Z,70.61
2019-02-09T20:53:54.642Z,67.37
2019-02-09T20:59:49.640Z,86.63
2019-02-09T21:05:44.646Z,74.38
2019-02-09T21:11:39.673Z,75.34
2019-02-09T21:17:34.650Z,71.1
2019-02-09T21:23:29.649Z,77.28
2019-02-09T21:29:24.632Z,69.86
2019-02-09T21:35:19.678Z,69.57
2019-02-09T21:41:14.649Z,66.87
2019-02-09T21:47:09.656Z,78.95
2019-02-09T21:53:04.665Z,83.36
2019-02-09T21:58:59.648Z,81.53
2019-02-09T22:04:54.685Z,74.3
2019-02-09T22:10:49.689Z,74.74
2019-02-09T22:16:44.696Z,75.07
2019-02-09T22:22:39.680Z,75.47
2019-02-09T22:28:34.692Z,84.45
2019-02-09T22:34:29.729Z,73.67
2019-02-09T22:40:24.692Z,79.31
2019-02-09T22:46:19.732Z,70.39
2019-02-09T22:52:14.697Z,73.28
2019-02-09T22:58:09.709Z,67.47
2019-02-09T23:04:04.706Z,74.14
2019-02-09T23:09:59.699Z,85.99
2019-02-09T23:15:54.688Z,77.99
2019-02-09T23:21:49.812Z,78.17
2019-02-09T23:27:44.698Z,92.31
2019-02-09T23:33:39.711Z,120.74
2019-02-09T23:39:34.762Z,107.61
2019-02-09T23:45:29.725Z,116.6
2019-02-09T23:51:24.741Z,114.08
2019-02-09T23:57:19.719Z,119.21
